Time;durP1;ratioP1;P1;durP2;ratioP2;P2;SDS_P1;SDS_P2;PMS_P1;PMS_P2;Temp;Humidity;BMP_temperature;BMP_pressure;BME280_temperature;BME280_humidity;BME280_pressure;Samples;Min_cycle;Max_cycle;Signal;HPM_P1;HPM_P2
2022/09/03 00:01:27;;;;;;;2.10;1.90;;;;;;;;;;5136938;27;20409;-85
2022/09/03 00:04:05;;;;;;;3.60;2.15;;;;;;;;;;5147535;27;20133;-84
2022/09/03 00:06:38;;;;;;;2.70;1.98;;;;;;;;;;5128440;27;20494;-84
2022/09/03 00:09:04;;;;;;;;;;;;;;;;;;5127486;27;20061;-83
2022/09/03 00:11:36;;;;;;;2.33;2.05;;;;;;;;;;5130397;27;20278;-80
2022/09/03 00:14:05;;;;;;;3.55;2.00;;;;;;;;;;5147146;27;20046;-90
2022/09/03 00:16:43;;;;;;;3.90;1.73;;;;;;;;;;5129237;27;20073;-87
2022/09/03 00:19:10;;;;;;;2.47;2.10;;;;;;;;;;5135833;27;20057;-89
2022/09/03 00:21:39;;;;;;;2.30;2.10;;;;;;;;;;5137529;27;20057;-86
2022/09/03 00:24:07;;;;;;;1.90;1.80;;;;;;;;;;5153428;27;20130;-82
2022/09/03 00:26:34;;;;;;;3.15;1.88;;;;;;;;;;5140033;27;20814;-81
2022/09/03 00:29:09;;;;;;;3.00;1.95;;;;;;;;;;5121734;27;20102;-86
2022/09/03 00:31:37;;;;;;;2.75;1.80;;;;;;;;;;5119275;27;20043;-82
2022/09/03 00:34:25;;;;;;;3.03;2.00;;;;;;;;;;5137813;27;20043;-88
2022/09/03 00:36:52;;;;;;;2.03;1.65;;;;;;;;;;5116175;27;20046;-80
2022/09/03 00:39:20;;;;;;;3.58;1.80;;;;;;;;;;5127826;27;20039;-93
2022/09/03 00:41:52;;;;;;;1.88;1.73;;;;;;;;;;5143883;27;20043;-87
2022/09/03 00:44:44;;;;;;;2.17;1.80;;;;;;;;;;5114835;27;20122;-85
2022/09/03 00:47:13;;;;;;;2.67;1.88;;;;;;;;;;5126578;27;20474;-81
2022/09/03 00:50:01;;;;;;;2.20;2.10;;;;;;;;;;5125737;27;20126;-88
2022/09/03 00:52:44;;;;;;;3.05;1.90;;;;;;;;;;5157163;27;20065;-82
2022/09/03 00:55:13;;;;;;;1.98;1.88;;;;;;;;;;5132184;27;20042;-82
2022/09/03 00:57:43;;;;;;;4.15;1.85;;;;;;;;;;5116862;27;20051;-82
2022/09/03 01:00:17;;;;;;;2.22;2.03;;;;;;;;;;5139488;27;20035;-82
2022/09/03 01:02:45;;;;;;;1.65;1.55;;;;;;;;;;5130751;27;20042;-82
2022/09/03 01:05:11;;;;;;;3.75;1.85;;;;;;;;;;5137132;27;20450;-82
2022/09/03 01:07:45;;;;;;;2.88;1.73;;;;;;;;;;5122931;27;20131;-82
2022/09/03 01:10:31;;;;;;;1.75;1.65;;;;;;;;;;5142298;27;20109;-83
2022/09/03 01:13:07;;;;;;;2.30;1.60;;;;;;;;;;5125868;27;20418;-82
2022/09/03 01:15:34;;;;;;;2.80;1.70;;;;;;;;;;5136053;27;20047;-81
2022/09/03 01:18:07;;;;;;;2.00;1.77;;;;;;;;;;5125954;27;20072;-81
2022/09/03 01:20:33;;;;;;;;;;;;;;;;;;5146814;27;20074;-82
2022/09/03 01:22:59;;;;;;;1.88;1.73;;;;;;;;;;5139916;27;19920;-82
2022/09/03 01:25:31;;;;;;;2.45;1.80;;;;;;;;;;5136051;27;20372;-81
2022/09/03 01:28:19;;;;;;;2.22;1.80;;;;;;;;;;5136534;27;20070;-81
2022/09/03 01:30:49;;;;;;;2.65;1.70;;;;;;;;;;5122670;27;20059;-81
2022/09/03 01:33:30;;;;;;;1.77;1.63;;;;;;;;;;5112614;27;20050;-82
2022/09/03 01:36:02;;;;;;;2.67;2.00;;;;;;;;;;5124651;27;20093;-81
2022/09/03 01:38:50;;;;;;;3.35;1.90;;;;;;;;;;5127377;27;20087;-82
2022/09/03 01:44:22;;;;;;;4.70;1.80;;;;;;;;;;5083332;27;20055;-81
2022/09/03 01:46:51;;;;;;;3.22;1.70;;;;;;;;;;5128007;27;20381;-81
2022/09/03 01:49:25;;;;;;;2.72;1.80;;;;;;;;;;5137491;27;20385;-81
2022/09/03 01:51:57;;;;;;;2.58;1.73;;;;;;;;;;5119998;27;20048;-81
2022/09/03 01:54:38;;;;;;;3.00;1.60;;;;;;;;;;5151794;27;20130;-82
2022/09/03 01:57:14;;;;;;;2.78;1.60;;;;;;;;;;5142792;27;20053;-81
2022/09/03 01:59:48;;;;;;;1.50;1.40;;;;;;;;;;5143202;27;20181;-82
2022/09/03 02:02:22;;;;;;;2.58;1.70;;;;;;;;;;5130475;27;20039;-82
2022/09/03 02:04:55;;;;;;;4.00;1.77;;;;;;;;;;5149796;27;20043;-82
2022/09/03 02:07:23;;;;;;;1.85;1.58;;;;;;;;;;5150016;27;20050;-81
2022/09/03 02:09:49;;;;;;;1.80;1.70;;;;;;;;;;5137196;27;20039;-81
2022/09/03 02:12:17;;;;;;;4.30;2.03;;;;;;;;;;5123124;27;20050;-82
2022/09/03 02:14:43;;;;;;;4.45;1.98;;;;;;;;;;5130757;27;20047;-82
2022/09/03 02:17:09;;;;;;;4.05;1.50;;;;;;;;;;5120117;27;20097;-82
2022/09/03 02:19:36;;;;;;;2.15;1.70;;;;;;;;;;5156125;27;20430;-81
2022/09/03 02:22:02;;;;;;;2.97;1.65;;;;;;;;;;5142656;27;20051;-81
2022/09/03 02:24:28;;;;;;;2.28;1.40;;;;;;;;;;5134475;27;20524;-81
2022/09/03 02:26:54;;;;;;;2.65;1.90;;;;;;;;;;5141456;27;22034;-81
2022/09/03 02:29:21;;;;;;;9.30;2.45;;;;;;;;;;5136532;27;20031;-81
2022/09/03 02:31:47;;;;;;;2.10;1.60;;;;;;;;;;5152208;27;20038;-81
2022/09/03 02:34:13;;;;;;;2.38;1.77;;;;;;;;;;5141457;27;20047;-82
2022/09/03 02:36:40;;;;;;;3.00;1.67;;;;;;;;;;5144406;27;20041;-81
2022/09/03 02:39:06;;;;;;;1.60;1.45;;;;;;;;;;5133546;27;20046;-81
2022/09/03 02:41:33;;;;;;;2.08;1.55;;;;;;;;;;5127318;27;20039;-81
2022/09/03 02:44:02;;;;;;;1.98;1.60;;;;;;;;;;5120256;27;20054;-81
2022/09/03 02:46:36;;;;;;;2.45;1.73;;;;;;;;;;5120760;27;20121;-81
2022/09/03 02:49:02;;;;;;;3.42;1.60;;;;;;;;;;5122711;27;20043;-81
2022/09/03 02:51:31;;;;;;;1.48;1.38;;;;;;;;;;5122137;27;20486;-81
2022/09/03 02:53:57;;;;;;;1.90;1.40;;;;;;;;;;5144635;27;20460;-82
2022/09/03 02:56:26;;;;;;;2.03;1.60;;;;;;;;;;5155957;27;20074;-81
2022/09/03 02:58:53;;;;;;;2.00;1.67;;;;;;;;;;5150901;27;20554;-81
2022/09/03 03:01:19;;;;;;;1.95;1.40;;;;;;;;;;5124853;27;20371;-81
2022/09/03 03:03:45;;;;;;;2.25;1.60;;;;;;;;;;5132001;27;20103;-81
2022/09/03 03:06:15;;;;;;;2.67;1.40;;;;;;;;;;5121071;27;20047;-81
2022/09/03 03:08:43;;;;;;;2.90;1.50;;;;;;;;;;5114882;27;20051;-81
2022/09/03 03:11:09;;;;;;;2.03;1.45;;;;;;;;;;5132685;27;20042;-81
2022/09/03 03:13:35;;;;;;;2.17;1.60;;;;;;;;;;5147987;27;21726;-81
2022/09/03 03:16:02;;;;;;;1.92;1.48;;;;;;;;;;5144570;27;20094;-81
2022/09/03 03:18:28;;;;;;;3.00;1.40;;;;;;;;;;5126435;27;20547;-82
2022/09/03 03:20:54;;;;;;;1.52;1.42;;;;;;;;;;5129869;27;20047;-81
2022/09/03 03:23:20;;;;;;;5.35;2.03;;;;;;;;;;5147037;27;20111;-82
2022/09/03 03:25:46;;;;;;;1.80;1.42;;;;;;;;;;5129601;27;20473;-81
2022/09/03 03:28:12;;;;;;;2.20;1.40;;;;;;;;;;5124610;27;20042;-81
2022/09/03 03:30:39;;;;;;;2.30;1.73;;;;;;;;;;5147226;27;20046;-82
2022/09/03 03:33:09;;;;;;;1.33;1.23;;;;;;;;;;5147333;27;20066;-81
2022/09/03 03:35:35;;;;;;;2.25;1.42;;;;;;;;;;5121621;27;20078;-82
2022/09/03 03:38:02;;;;;;;1.70;1.55;;;;;;;;;;5151842;27;20067;-81
2022/09/03 03:40:28;;;;;;;2.25;1.65;;;;;;;;;;5129133;27;20090;-81
2022/09/03 03:42:54;;;;;;;2.47;1.38;;;;;;;;;;5145869;27;20227;-81
2022/09/03 03:45:20;;;;;;;3.03;1.58;;;;;;;;;;5148857;27;20045;-81
2022/09/03 03:47:46;;;;;;;1.85;1.42;;;;;;;;;;5127409;27;20050;-81
2022/09/03 03:50:12;;;;;;;2.05;1.63;;;;;;;;;;5146708;27;20035;-81
2022/09/03 03:52:38;;;;;;;2.15;1.60;;;;;;;;;;5151689;27;20042;-81
2022/09/03 03:55:05;;;;;;;1.55;1.40;;;;;;;;;;5150871;27;20054;-81
2022/09/03 03:57:31;;;;;;;2.22;1.52;;;;;;;;;;5115415;27;20406;-81
2022/09/03 03:59:57;;;;;;;1.42;1.30;;;;;;;;;;5131528;27;20512;-81
2022/09/03 04:02:23;;;;;;;1.58;1.48;;;;;;;;;;5119128;27;20035;-81
2022/09/03 04:04:49;;;;;;;1.88;1.40;;;;;;;;;;5121768;27;20057;-81
2022/09/03 04:07:15;;;;;;;2.55;1.50;;;;;;;;;;5134040;27;20078;-81
2022/09/03 04:09:41;;;;;;;1.50;1.40;;;;;;;;;;5124539;27;20386;-81
2022/09/03 04:12:07;;;;;;;3.38;1.52;;;;;;;;;;5118702;27;20046;-81
2022/09/03 04:14:34;;;;;;;1.65;1.48;;;;;;;;;;5122972;27;20742;-81
2022/09/03 04:17:01;;;;;;;1.60;1.50;;;;;;;;;;5126839;27;20057;-81
2022/09/03 04:19:29;;;;;;;1.55;1.50;;;;;;;;;;5134697;27;20545;-81
2022/09/03 04:21:55;;;;;;;2.10;1.40;;;;;;;;;;5134251;27;20062;-80
2022/09/03 04:24:21;;;;;;;2.00;1.48;;;;;;;;;;5150482;27;20081;-81
2022/09/03 04:26:49;;;;;;;1.52;1.42;;;;;;;;;;5139633;27;20092;-81
2022/09/03 04:29:15;;;;;;;2.50;1.70;;;;;;;;;;5152646;27;20141;-81
2022/09/03 04:32:52;;;;;;;2.45;1.58;;;;;;;;;;5146217;27;20039;-81
2022/09/03 04:34:33;;;;;;;1.60;1.50;;;;;;;;;;5137617;27;20413;-80
2022/09/03 04:36:59;;;;;;;4.03;1.50;;;;;;;;;;5114865;27;20426;-81
2022/09/03 04:39:25;;;;;;;2.47;1.55;;;;;;;;;;5146164;27;20051;-81
2022/09/03 04:41:51;;;;;;;1.98;1.60;;;;;;;;;;5131588;27;20043;-80
2022/09/03 04:44:17;;;;;;;2.72;1.60;;;;;;;;;;5132927;27;20035;-81
2022/09/03 04:46:46;;;;;;;2.58;1.60;;;;;;;;;;5126333;27;20096;-81
2022/09/03 04:49:12;;;;;;;2.70;1.58;;;;;;;;;;5128101;27;20077;-81
2022/09/03 04:51:38;;;;;;;1.70;1.60;;;;;;;;;;5135708;27;20082;-81
2022/09/03 04:54:04;;;;;;;1.77;1.52;;;;;;;;;;5136017;27;20043;-81
2022/09/03 04:56:32;;;;;;;1.92;1.70;;;;;;;;;;5141437;27;20039;-81
2022/09/03 04:58:59;;;;;;;2.30;1.58;;;;;;;;;;5141327;27;20474;-81
2022/09/03 05:01:28;;;;;;;2.83;1.60;;;;;;;;;;5144793;27;20526;-81
2022/09/03 05:03:57;;;;;;;3.33;1.75;;;;;;;;;;5148035;27;20047;-80
2022/09/03 05:06:24;;;;;;;2.17;1.90;;;;;;;;;;5149380;27;20031;-81
2022/09/03 05:08:51;;;;;;;1.52;1.50;;;;;;;;;;5122885;27;20486;-81
2022/09/03 05:11:18;;;;;;;3.63;1.70;;;;;;;;;;5118359;27;20049;-81
2022/09/03 05:13:47;;;;;;;4.72;1.60;;;;;;;;;;5153449;27;21088;-80
2022/09/03 05:16:14;;;;;;;1.38;1.38;;;;;;;;;;5146064;27;20081;-80
2022/09/03 05:18:41;;;;;;;1.52;1.42;;;;;;;;;;5132934;27;20046;-81
2022/09/03 05:21:14;;;;;;;2.00;1.77;;;;;;;;;;5123307;27;20118;-81
2022/09/03 05:23:42;;;;;;;2.80;1.80;;;;;;;;;;5131172;27;20058;-81
2022/09/03 05:26:09;;;;;;;1.60;1.50;;;;;;;;;;5125473;27;20043;-81
2022/09/03 05:28:36;;;;;;;1.63;1.52;;;;;;;;;;5140139;27;20458;-81
2022/09/03 05:31:02;;;;;;;1.70;1.60;;;;;;;;;;5137389;27;20073;-80
2022/09/03 05:33:29;;;;;;;2.50;1.70;;;;;;;;;;5151276;27;20066;-80
2022/09/03 05:36:00;;;;;;;3.20;1.80;;;;;;;;;;5147210;27;20081;-81
2022/09/03 05:38:26;;;;;;;2.17;1.65;;;;;;;;;;5137117;27;20045;-81
2022/09/03 05:40:52;;;;;;;1.95;1.60;;;;;;;;;;5138856;27;20038;-80
2022/09/03 05:43:19;;;;;;;1.67;1.40;;;;;;;;;;5130839;27;20047;-81
2022/09/03 05:45:46;;;;;;;1.70;1.60;;;;;;;;;;5122337;27;20043;-80
2022/09/03 05:48:12;;;;;;;1.70;1.60;;;;;;;;;;5124262;27;20081;-81
2022/09/03 05:50:38;;;;;;;2.45;1.60;;;;;;;;;;5161445;27;20049;-80
2022/09/03 05:53:05;;;;;;;3.30;1.65;;;;;;;;;;5120406;27;20051;-81
2022/09/03 05:55:31;;;;;;;1.98;1.58;;;;;;;;;;5131571;27;20081;-81
2022/09/03 05:57:57;;;;;;;1.88;1.63;;;;;;;;;;5145237;27;20125;-81
2022/09/03 06:00:24;;;;;;;2.33;1.60;;;;;;;;;;5146087;27;20173;-81
2022/09/03 06:02:53;;;;;;;2.20;1.45;;;;;;;;;;5133315;27;20070;-81
2022/09/03 06:05:19;;;;;;;4.28;1.90;;;;;;;;;;5147900;27;20033;-80
2022/09/03 06:07:49;;;;;;;1.80;1.60;;;;;;;;;;5149947;27;20454;-80
2022/09/03 06:10:16;;;;;;;2.20;1.90;;;;;;;;;;5151943;27;20049;-81
2022/09/03 06:12:48;;;;;;;2.22;1.90;;;;;;;;;;5152067;27;20087;-80
2022/09/03 06:15:14;;;;;;;2.55;1.60;;;;;;;;;;5139903;27;20529;-80
2022/09/03 06:17:40;;;;;;;1.70;1.60;;;;;;;;;;5140483;27;20074;-80
2022/09/03 06:20:06;;;;;;;1.73;1.58;;;;;;;;;;5151633;27;20076;-81
2022/09/03 06:22:32;;;;;;;1.73;1.63;;;;;;;;;;5130182;27;20058;-81
2022/09/03 06:24:58;;;;;;;1.90;1.70;;;;;;;;;;5119237;27;20050;-80
2022/09/03 06:27:24;;;;;;;3.33;1.58;;;;;;;;;;5128055;27;20047;-81
2022/09/03 06:29:50;;;;;;;2.00;1.63;;;;;;;;;;5135945;27;20406;-81
2022/09/03 06:32:16;;;;;;;1.90;1.80;;;;;;;;;;5129361;27;20047;-80
2022/09/03 06:34:42;;;;;;;1.83;1.67;;;;;;;;;;5119983;27;20052;-80
2022/09/03 06:37:08;;;;;;;2.40;1.70;;;;;;;;;;5136722;27;20066;-80
2022/09/03 06:39:34;;;;;;;3.47;1.85;;;;;;;;;;5131115;27;20049;-80
2022/09/03 06:42:00;;;;;;;1.85;1.60;;;;;;;;;;5126845;27;20035;-81
2022/09/03 06:44:26;;;;;;;2.10;1.70;;;;;;;;;;5126214;27;20039;-80
2022/09/03 06:46:52;;;;;;;2.10;1.80;;;;;;;;;;5153410;27;20048;-80
2022/09/03 06:49:20;;;;;;;2.42;1.70;;;;;;;;;;5135030;27;20487;-80
2022/09/03 06:51:46;;;;;;;2.47;1.80;;;;;;;;;;5123838;27;20047;-80
2022/09/03 06:54:14;;;;;;;1.95;1.55;;;;;;;;;;5123292;27;20036;-80
2022/09/03 06:56:40;;;;;;;3.80;1.80;;;;;;;;;;5121978;27;20044;-80
2022/09/03 06:59:08;;;;;;;2.45;1.90;;;;;;;;;;5119127;27;20071;-80
2022/09/03 07:01:34;;;;;;;3.67;1.90;;;;;;;;;;5121601;27;20050;-80
2022/09/03 07:04:01;;;;;;;2.22;1.77;;;;;;;;;;5132426;27;20065;-80
2022/09/03 07:06:29;;;;;;;2.00;1.67;;;;;;;;;;5121012;27;20117;-81
2022/09/03 07:08:56;;;;;;;2.78;2.08;;;;;;;;;;5132509;27;20437;-80
2022/09/03 07:11:25;;;;;;;2.92;1.98;;;;;;;;;;5112464;27;20066;-80
2022/09/03 07:13:52;;;;;;;3.67;1.90;;;;;;;;;;5120402;27;20119;-80
2022/09/03 07:16:26;;;;;;;2.20;2.00;;;;;;;;;;5132820;27;20039;-81
2022/09/03 07:18:52;;;;;;;2.25;1.80;;;;;;;;;;5126793;27;20043;-81
2022/09/03 07:21:20;;;;;;;2.00;1.80;;;;;;;;;;5125671;27;20479;-81
2022/09/03 07:23:47;;;;;;;1.88;1.77;;;;;;;;;;5107016;27;20044;-80
2022/09/03 07:26:18;;;;;;;3.65;1.90;;;;;;;;;;5121605;27;20043;-80
2022/09/03 07:28:45;;;;;;;1.63;1.52;;;;;;;;;;5107881;27;20068;-79
2022/09/03 07:31:18;;;;;;;2.42;1.92;;;;;;;;;;5106035;27;20172;-80
2022/09/03 07:33:44;;;;;;;2.10;1.85;;;;;;;;;;5102980;28;20051;-80
2022/09/03 07:36:13;;;;;;;3.50;2.03;;;;;;;;;;5107062;27;20131;-81
2022/09/03 07:38:39;;;;;;;4.00;2.10;;;;;;;;;;5102372;28;20225;-80
2022/09/03 07:41:06;;;;;;;3.63;2.20;;;;;;;;;;5112376;27;20042;-81
2022/09/03 07:43:34;;;;;;;3.28;1.50;;;;;;;;;;5106849;27;20730;-81
2022/09/03 07:46:00;;;;;;;2.78;1.90;;;;;;;;;;5100941;27;20432;-80
2022/09/03 07:48:27;;;;;;;5.13;2.28;;;;;;;;;;5104288;27;20543;-81
2022/09/03 07:50:58;;;;;;;4.57;2.00;;;;;;;;;;5094132;28;20033;-81
2022/09/03 07:53:24;;;;;;;1.85;1.75;;;;;;;;;;5104810;27;20539;-81
2022/09/03 07:55:50;;;;;;;3.35;1.90;;;;;;;;;;5091806;27;20044;-81
2022/09/03 07:58:16;;;;;;;1.73;1.63;;;;;;;;;;5107155;27;20513;-81
2022/09/03 08:00:43;;;;;;;2.38;2.10;;;;;;;;;;5107813;27;20040;-80
2022/09/03 08:03:09;;;;;;;2.55;1.80;;;;;;;;;;5094156;28;20055;-81
2022/09/03 08:05:36;;;;;;;4.13;1.70;;;;;;;;;;5105945;27;20486;-80
2022/09/03 08:08:03;;;;;;;4.30;1.77;;;;;;;;;;5097837;27;20372;-81
2022/09/03 08:10:29;;;;;;;2.72;1.90;;;;;;;;;;5108410;27;20119;-81
2022/09/03 08:12:57;;;;;;;3.83;1.80;;;;;;;;;;5104204;28;20043;-81
2022/09/03 08:15:24;;;;;;;3.75;1.98;;;;;;;;;;5102166;27;20066;-81
2022/09/03 08:17:50;;;;;;;1.85;1.75;;;;;;;;;;5103047;27;20754;-82
2022/09/03 08:20:16;;;;;;;3.25;1.80;;;;;;;;;;5099540;28;20067;-82
2022/09/03 08:22:43;;;;;;;3.03;1.80;;;;;;;;;;5100829;27;20047;-80
2022/09/03 08:25:12;;;;;;;2.88;1.75;;;;;;;;;;5098920;28;20040;-81
2022/09/03 08:27:38;;;;;;;2.97;1.92;;;;;;;;;;5096775;28;20070;-79
2022/09/03 08:30:04;;;;;;;2.97;1.70;;;25.70;65.50;;;;;;5104110;28;20500;-79
2022/09/03 08:32:30;;;;;;;5.50;2.00;;;18.90;99.90;;;;;;5103400;28;20070;-81
2022/09/03 08:34:56;;;;;;;3.00;1.85;;;18.70;99.90;;;;;;5101162;28;20063;-81
2022/09/03 08:37:26;;;;;;;5.68;2.25;;;;;;;;;;5106389;28;20423;-82
2022/09/03 08:39:52;;;;;;;2.22;1.73;;;;;;;;;;5104920;28;20063;-81
2022/09/03 08:42:45;;;;;;;1.92;1.70;;;;;;;;;;5098072;28;20100;-80
2022/09/03 08:45:20;;;;;;;2.40;2.17;;;;;;;;;;5095743;28;20094;-83
2022/09/03 08:47:59;;;;;;;4.15;1.95;;;;;;;;;;5099834;28;20172;-82
2022/09/03 08:50:30;;;;;;;2.20;2.00;;;;;;;;;;5099988;28;20465;-82
2022/09/03 08:53:08;;;;;;;2.83;2.10;;;;;;;;;;5102035;28;20066;-81
2022/09/03 08:55:43;;;;;;;3.88;1.75;;;;;;;;;;5100070;28;20764;-81
2022/09/03 08:58:09;;;;;;;3.75;1.98;;;;;;;;;;5109304;28;20055;-80
2022/09/03 09:00:38;;;;;;;2.20;2.00;;;;;;;;;;5106757;28;20043;-82
2022/09/03 09:03:23;;;;;;;2.75;1.70;;;;;;;;;;5100219;28;20044;-82
2022/09/03 09:05:54;;;;;;;1.73;1.63;;;;;;;;;;5089873;28;20078;-82
2022/09/03 09:08:34;;;;;;;2.15;1.98;;;;;;;;;;5099189;28;20055;-82
2022/09/03 09:11:06;;;;;;;3.20;1.90;;;;;;;;;;5101500;28;20039;-80
2022/09/03 09:13:41;;;;;;;2.13;1.92;;;;;;;;;;5098713;28;20055;-82
2022/09/03 09:16:12;;;;;;;3.08;1.83;;;;;;;;;;5103633;28;20467;-82
2022/09/03 09:18:57;;;;;;;4.15;2.00;;;;;;;;;;5100340;28;20475;-82
2022/09/03 09:21:28;;;;;;;3.33;1.80;;;;;;;;;;5101753;28;20040;-83
2022/09/03 09:23:56;;;;;;;2.30;1.80;;;;;;;;;;5126914;27;20062;-82
2022/09/03 09:26:22;;;;;;;2.80;1.70;;;;;;;;;;5126153;27;20050;-81
2022/09/03 09:28:57;;;;;;;3.40;1.70;;;;;;;;;;5141052;27;20566;-81
2022/09/03 09:31:23;;;;;;;2.60;2.00;;;;;;;;;;5139441;27;20470;-81
2022/09/03 09:33:51;;;;;;;2.53;2.10;;;;;;;;;;5126219;27;20039;-82
2022/09/03 09:36:18;;;;;;;4.30;1.80;;;;;;;;;;5118907;27;20047;-83
2022/09/03 09:38:46;;;;;;;3.45;1.70;;;;;;;;;;5119675;27;20044;-82
2022/09/03 09:41:17;;;;;;;3.47;1.90;;;;;;;;;;5118260;27;20039;-83
2022/09/03 09:43:46;;;;;;;2.38;1.70;;;;;;;;;;5125443;27;20043;-83
2022/09/03 09:46:14;;;;;;;4.88;1.98;;;;;;;;;;5119443;27;20049;-81
2022/09/03 09:48:51;;;;;;;2.08;1.70;;;;;;;;;;5117751;27;20054;-82
2022/09/03 09:51:22;;;;;;;2.33;1.70;;;;;;;;;;5129888;27;20050;-82
2022/09/03 09:54:00;;;;;;;3.33;2.03;;;;;;;;;;5124918;27;20043;-81
2022/09/03 09:56:26;;;;;;;3.90;1.73;;;;;;;;;;5113423;27;20462;-89
2022/09/03 09:59:01;;;;;;;2.58;1.80;;;;;;;;;;5122002;27;20537;-81
2022/09/03 10:01:30;;;;;;;3.15;1.65;;;;;;;;;;5125431;27;20051;-83
2022/09/03 10:04:00;;;;;;;3.58;1.80;;;;;;;;;;5121744;27;20047;-84
2022/09/03 10:09:23;;;;;;;1.83;1.70;;;;;;;;;;5139464;27;20043;-82
2022/09/03 10:11:50;;;;;;;2.60;1.70;;;;;;;;;;5123783;27;20550;-83
2022/09/03 10:14:36;;;;;;;1.67;1.58;;;;;;;;;;5113530;28;20083;-82
2022/09/03 10:17:12;;;;;;;2.63;1.58;;;;;;;;;;5134656;27;20043;-82
2022/09/03 10:22:53;;;;;;;1.73;1.58;;;;;;;;;;5109315;27;20054;-82
2022/09/03 10:25:20;;;;;;;2.33;1.63;;;;;;;;;;5108544;28;20403;-83
2022/09/03 10:27:46;;;;;;;2.75;1.70;;;;;;;;;;5098763;28;20110;-89
2022/09/03 10:30:18;;;;;;;1.80;1.70;;;;;;;;;;5102998;27;20521;-81
2022/09/03 10:32:50;;;;;;;1.90;1.73;;;;;;;;;;5106375;27;20101;-81
2022/09/03 10:35:36;;;;;;;2.58;1.65;;;;;;;;;;5109691;27;20487;-80
2022/09/03 10:38:11;;;;;;;3.03;2.47;;;;;;;;;;5103079;27;20077;-83
2022/09/03 10:40:42;;;;;;;3.75;1.73;;;;;;;;;;5104921;27;20088;-85
2022/09/03 10:43:30;;;;;;;2.55;1.50;;;;;;;;;;5104640;27;20449;-84
2022/09/03 10:46:00;;;;;;;1.85;1.60;;;;;;;;;;5104331;28;20048;-84
2022/09/03 10:48:48;;;;;;;4.10;1.73;;;;;;;;;;5093296;28;20119;-84
2022/09/03 10:51:17;;;;;;;2.45;1.50;;;;;;;;;;5101770;27;20105;-84
2022/09/03 10:53:43;;;;;;;1.83;1.58;;;;;;;;;;5110733;27;20043;-84
2022/09/03 10:56:28;;;;;;;4.50;1.52;;;;;;;;;;5113147;28;20047;-84
2022/09/03 10:59:12;;;;;;;4.82;1.70;;;;;;;;;;5106201;28;20050;-84
2022/09/03 11:01:44;;;;;;;2.10;1.27;;;;;;;;;;5094635;28;20047;-82
2022/09/03 11:04:12;;;;;;;3.20;1.55;;;;;;;;;;5111104;27;20048;-82
2022/09/03 11:06:47;;;;;;;1.60;1.50;;;;;;;;;;5103055;27;20063;-82
2022/09/03 11:09:19;;;;;;;2.22;1.65;;;;;;;;;;5111117;27;20107;-81
2022/09/03 11:11:48;;;;;;;2.92;1.50;;;;;;;;;;5113600;28;20188;-81
2022/09/03 11:14:17;;;;;;;2.75;1.85;;;;;;;;;;5098781;27;20043;-81
2022/09/03 11:16:52;;;;;;;1.95;1.50;;;;;;;;;;5115648;27;20398;-82
2022/09/03 11:19:24;;;;;;;2.35;1.83;;;;;;;;;;5101591;27;20035;-82
2022/09/03 11:21:50;;;;;;;2.40;1.20;;;;;;;;;;5126034;27;20052;-83
2022/09/03 11:24:19;;;;;;;3.38;1.50;;;;;;;;;;5131810;27;20494;-81
2022/09/03 11:26:49;;;;;;;2.28;1.50;;;;;;;;;;5147410;27;20038;-81
2022/09/03 11:29:15;;;;;;;2.60;1.60;;;;;;;;;;5142539;27;20061;-82
2022/09/03 11:31:51;;;;;;;2.35;1.70;;;;;;;;;;5155796;27;20038;-82
2022/09/03 11:34:26;;;;;;;1.33;1.20;;;;;;;;;;5150514;27;20152;-82
2022/09/03 11:36:52;;;;;;;1.63;1.52;;;;;;;;;;5153171;27;20038;-83
2022/09/03 11:39:23;;;;;;;2.35;1.30;;;;;;;;;;5143142;27;20088;-83
2022/09/03 11:42:00;;;;;;;1.95;1.50;;;;;;;;;;5154260;27;20046;-82
2022/09/03 11:44:36;;;;;;;1.98;1.60;;;;;;;;;;5145233;27;20038;-82
2022/09/03 11:47:12;;;;;;;1.52;1.40;;;;;;;;;;5121414;27;20047;-81
2022/09/03 11:49:43;;;;;;;3.72;1.58;;;;;;;;;;5118262;27;20042;-82
2022/09/03 11:52:11;;;;;;;3.35;1.50;;;;;;;;;;5152430;27;20493;-82
2022/09/03 11:54:44;;;;;;;4.70;1.70;;;;;;;;;;5125543;27;20155;-82
2022/09/03 11:57:15;;;;;;;3.17;1.73;;;;;;;;;;5141708;27;20046;-82
2022/09/03 11:59:42;;;;;;;3.92;1.65;;;;;;;;;;5115986;27;20054;-82
2022/09/03 12:02:11;;;;;;;2.63;1.70;;;;;;;;;;5152156;27;20047;-83
2022/09/03 12:05:06;;;;;;;1.55;1.45;;;;;;;;;;5137955;27;20070;-82
2022/09/03 12:07:41;;;;;;;2.28;1.52;;;;;;;;;;5132955;27;20486;-84
2022/09/03 12:10:12;;;;;;;1.38;1.30;;;;;;;;;;5124121;27;20042;-81
2022/09/03 12:12:47;;;;;;;1.75;1.50;;;;;;;;;;5152472;27;20042;-82
2022/09/03 12:15:25;;;;;;;1.70;1.60;;;;;;;;;;5152763;27;20181;-81
2022/09/03 12:20:38;;;;;;;2.83;1.73;;;;;;;;;;5150897;27;20395;-82
2022/09/03 12:23:04;;;;;;;1.50;1.40;;;;;;;;;;5133764;27;20047;-82
2022/09/03 12:25:30;;;;;;;3.72;1.40;;;;;;;;;;5133550;27;20066;-83
2022/09/03 12:27:56;;;;;;;1.67;1.58;;;;;;;;;;5116254;27;20130;-82
2022/09/03 12:30:23;;;;;;;4.43;1.70;;;;;;;;;;5141316;27;20397;-82
2022/09/03 12:32:51;;;;;;;3.33;1.30;;;;;;;;;;5135460;27;20589;-82
2022/09/03 12:35:23;;;;;;;3.00;1.40;;;;;;;;;;5129822;28;20047;-82
2022/09/03 12:37:51;;;;;;;2.50;1.50;;;;;;;;;;5132995;27;20049;-83
2022/09/03 12:40:22;;;;;;;1.50;1.40;;;;;;;;;;5137447;27;20038;-82
2022/09/03 12:42:48;;;;;;;3.75;1.67;;;;;;;;;;5114138;28;20054;-82
2022/09/03 12:45:18;;;;;;;1.60;1.50;;;;;;;;;;5117122;27;20038;-82
2022/09/03 12:47:44;;;;;;;2.03;1.40;;;;;;;;;;5139349;27;20053;-82
2022/09/03 12:50:15;;;;;;;2.53;1.50;;;;;;;;;;5122461;27;20043;-83
2022/09/03 12:52:44;;;;;;;2.45;1.40;;;;;;;;;;5152703;27;20431;-82
2022/09/03 12:55:19;;;;;;;1.40;1.30;;;;;;;;;;5133448;27;20611;-82
2022/09/03 12:57:48;;;;;;;1.45;1.33;;;;;;;;;;5139515;27;20066;-82
2022/09/03 13:00:15;;;;;;;2.50;1.50;;;;;;;;;;5122256;27;20506;-83
2022/09/03 13:03:02;;;;;;;1.40;1.40;;;;;;;;;;5147756;27;20047;-81
2022/09/03 13:05:48;;;;;;;1.58;1.30;;;;;;;;;;5149430;27;20045;-88
2022/09/03 13:08:19;;;;;;;2.15;1.40;;;;;;;;;;5123766;27;20397;-87
2022/09/03 13:10:47;;;;;;;1.77;1.50;;;;;;;;;;5128417;27;20427;-84
2022/09/03 13:13:23;;;;;;;1.70;1.30;;;;;;;;;;5144640;27;20311;-84
2022/09/03 13:16:08;;;;;;;1.55;1.45;;;;;;;;;;5134477;27;20095;-87
2022/09/03 13:18:37;;;;;;;2.13;1.40;;;;;;;;;;5135601;27;20046;-81
2022/09/03 13:21:11;;;;;;;2.90;1.40;;;;;;;;;;5154341;27;20043;-82
2022/09/03 13:23:47;;;;;;;1.50;1.30;;;;;;;;;;5134059;27;20054;-84
2022/09/03 13:26:16;;;;;;;1.60;1.50;;;;;;;;;;5127475;27;20069;-83
2022/09/03 13:28:58;;;;;;;2.75;1.65;;;;;;;;;;5127518;27;20470;-85
2022/09/03 13:31:30;;;;;;;2.30;1.38;;;;;;;;;;5145018;27;20081;-84
2022/09/03 13:34:06;;;;;;;2.47;1.67;;;;;;;;;;5143852;27;20603;-84
2022/09/03 13:36:51;;;;;;;1.40;1.30;;;;;;;;;;5145828;27;20405;-84
2022/09/03 13:39:21;;;;;;;1.73;1.23;;;;;;;;;;5120963;27;20049;-84
2022/09/03 13:42:04;;;;;;;1.40;1.30;;;;;;;;;;5150525;27;20092;-84
2022/09/03 13:44:38;;;;;;;2.97;1.50;;;;;;;;;;5126814;27;20042;-83
2022/09/03 13:47:10;;;;;;;2.35;1.35;;;;;;;;;;5121071;27;20051;-84
2022/09/03 13:50:25;;;;;;;1.55;1.45;;;;;;;;;;5135737;27;20049;-84
2022/09/03 13:52:34;;;;;;;1.92;1.50;;;;;;;;;;5116323;27;20075;-84
2022/09/03 13:55:06;;;;;;;1.98;1.40;;;;;;;;;;5132811;27;20046;-83
2022/09/03 13:57:39;;;;;;;2.75;1.30;;;;;;;;;;5117253;27;20499;-84
2022/09/03 14:00:09;;;;;;;2.80;1.23;;;;;;;;;;5135970;27;20138;-83
2022/09/03 14:02:39;;;;;;;1.52;1.20;;;;;;;;;;5115349;27;20050;-78
2022/09/03 14:05:11;;;;;;;1.75;1.30;;;;;;;;;;5122389;27;20051;-86
2022/09/03 14:07:56;;;;;;;1.25;1.20;;;;;;;;;;5135109;27;20045;-82
2022/09/03 14:10:31;;;;;;;2.17;1.40;;;;;;;;;;5143454;27;20375;-80
2022/09/03 14:13:16;;;;;;;2.78;1.30;;;;;;;;;;5134744;27;20489;-84
2022/09/03 14:15:45;;;;;;;4.07;1.20;;;;;;;;;;5133697;27;20043;-89
2022/09/03 14:18:14;;;;;;;2.58;1.20;;;;;;;;;;5147432;27;20053;-80
2022/09/03 14:20:56;;;;;;;2.75;1.27;;;;;;;;;;5141055;27;20047;-84
2022/09/03 14:23:22;;;;;;;;;;;;;;;;;;5147616;27;20065;-88
2022/09/03 14:25:59;;;;;;;9.52;1.40;;;;;;;;;;5139083;27;19919;-87
2022/09/03 14:28:36;;;;;;;1.30;0.90;;;;;;;;;;5131286;27;20389;-88
2022/09/03 14:31:08;;;;;;;2.15;1.08;;;;;;;;;;5132342;27;20046;-87
2022/09/03 14:33:34;;;;;;;;;;;;;;;;;;5125808;27;20054;-88
2022/09/03 14:36:09;;;;;;;3.47;1.10;;;;;;;;;;5142819;27;20014;-85
2022/09/03 14:38:41;;;;;;;1.55;0.98;;;;;;;;;;5129466;27;20109;-87
2022/09/03 14:41:15;;;;;;;1.40;0.90;;;;;;;;;;5153438;27;20066;-87
2022/09/03 14:43:41;;;;;;;2.50;1.00;;;;;;;;;;5151721;27;20039;-87
2022/09/03 14:46:16;;;;;;;1.05;1.05;;;;;;;;;;5131837;27;20812;-87
2022/09/03 14:48:58;;;;;;;0.80;0.80;;;;;;;;;;5127767;27;20042;-88
2022/09/03 14:51:43;;;;;;;1.40;0.90;;;;;;;;;;5152013;27;20496;-89
2022/09/03 14:54:27;;;;;;;0.90;0.90;;;;;;;;;;5130863;27;20054;-89
2022/09/03 14:57:12;;;;;;;2.20;0.90;;;;;;;;;;5149021;27;20039;-88
2022/09/03 14:59:41;;;;;;;1.73;1.00;;;;;;;;;;5132422;27;20138;-88
2022/09/03 15:02:26;;;;;;;1.50;1.05;;;;;;;;;;5142465;27;20046;-89
2022/09/03 15:05:02;;;;;;;1.00;0.93;;;;;;;;;;5119584;27;20055;-88
2022/09/03 15:07:29;;;;;;;4.38;1.02;;;;;;;;;;5138384;27;20043;-90
2022/09/03 15:10:06;;;;;;;2.45;0.90;;;;;;;;;;5138255;27;20047;-90
2022/09/03 15:12:38;;;;;;;0.95;0.93;;;;;;;;;;5142452;27;20113;-90
2022/09/03 15:15:23;;;;;;;1.20;0.80;;;;;;;;;;5117190;27;20515;-89